sensor_id;sensor_type;location;lat;lon;timestamp;P1;durP1;ratioP1;P2;durP2;ratioP2
74616;SDS011;63123;50.906;4.198;2022-11-20T00:01:44;11.00;;;10.00;;
74616;SDS011;63123;50.906;4.198;2022-11-20T00:04:10;11.57;;;10.48;;
74616;SDS011;63123;50.906;4.198;2022-11-20T00:06:37;10.63;;;9.65;;
74616;SDS011;63123;50.906;4.198;2022-11-20T00:09:02;9.07;;;8.27;;
74616;SDS011;63123;50.906;4.198;2022-11-20T00:11:30;10.63;;;9.63;;
74616;SDS011;63123;50.906;4.198;2022-11-20T00:13:57;10.57;;;9.70;;
74616;SDS011;63123;50.906;4.198;2022-11-20T00:16:25;10.65;;;9.65;;
74616;SDS011;63123;50.906;4.198;2022-11-20T00:18:52;11.13;;;10.02;;
74616;SDS011;63123;50.906;4.198;2022-11-20T00:21:19;10.02;;;9.02;;
74616;SDS011;63123;50.906;4.198;2022-11-20T00:23:50;10.73;;;9.80;;
74616;SDS011;63123;50.906;4.198;2022-11-20T00:26:18;9.90;;;9.05;;
74616;SDS011;63123;50.906;4.198;2022-11-20T00:28:49;11.35;;;10.23;;
74616;SDS011;63123;50.906;4.198;2022-11-20T00:31:16;10.80;;;9.73;;
74616;SDS011;63123;50.906;4.198;2022-11-20T00:33:42;11.00;;;10.00;;
74616;SDS011;63123;50.906;4.198;2022-11-20T00:36:10;11.02;;;10.02;;
74616;SDS011;63123;50.906;4.198;2022-11-20T00:38:40;10.40;;;9.50;;
74616;SDS011;63123;50.906;4.198;2022-11-20T00:41:07;10.88;;;9.80;;
74616;SDS011;63123;50.906;4.198;2022-11-20T00:43:34;10.10;;;9.10;;
74616;SDS011;63123;50.906;4.198;2022-11-20T00:46:01;10.85;;;9.63;;
74616;SDS011;63123;50.906;4.198;2022-11-20T00:48:28;10.48;;;9.48;;
74616;SDS011;63123;50.906;4.198;2022-11-20T00:50:53;10.93;;;9.82;;
74616;SDS011;63123;50.906;4.198;2022-11-20T00:53:20;9.77;;;8.88;;
74616;SDS011;63123;50.906;4.198;2022-11-20T00:55:53;10.50;;;9.57;;
74616;SDS011;63123;50.906;4.198;2022-11-20T00:58:20;10.47;;;9.57;;
74616;SDS011;63123;50.906;4.198;2022-11-20T01:00:46;10.75;;;9.82;;
74616;SDS011;63123;50.906;4.198;2022-11-20T01:03:11;10.30;;;9.40;;
74616;SDS011;63123;50.906;4.198;2022-11-20T01:05:37;9.65;;;8.75;;
74616;SDS011;63123;50.906;4.198;2022-11-20T01:08:03;9.80;;;8.90;;
74616;SDS011;63123;50.906;4.198;2022-11-20T01:10:29;9.77;;;8.98;;
74616;SDS011;63123;50.906;4.198;2022-11-20T01:12:54;10.07;;;9.07;;
74616;SDS011;63123;50.906;4.198;2022-11-20T01:15:39;10.95;;;9.95;;
74616;SDS011;63123;50.906;4.198;2022-11-20T01:18:04;11.05;;;10.15;;
74616;SDS011;63123;50.906;4.198;2022-11-20T01:20:33;10.82;;;9.90;;
74616;SDS011;63123;50.906;4.198;2022-11-20T01:23:00;10.52;;;9.60;;
74616;SDS011;63123;50.906;4.198;2022-11-20T01:25:26;9.95;;;9.15;;
74616;SDS011;63123;50.906;4.198;2022-11-20T01:27:52;9.55;;;8.65;;
74616;SDS011;63123;50.906;4.198;2022-11-20T01:30:17;10.05;;;9.07;;
74616;SDS011;63123;50.906;4.198;2022-11-20T01:32:43;10.45;;;9.45;;
74616;SDS011;63123;50.906;4.198;2022-11-20T01:35:09;10.23;;;9.32;;
74616;SDS011;63123;50.906;4.198;2022-11-20T01:37:35;10.38;;;9.38;;
74616;SDS011;63123;50.906;4.198;2022-11-20T01:40:00;9.52;;;8.63;;
74616;SDS011;63123;50.906;4.198;2022-11-20T01:42:26;10.85;;;9.88;;
74616;SDS011;63123;50.906;4.198;2022-11-20T01:48:38;9.73;;;8.93;;
74616;SDS011;63123;50.906;4.198;2022-11-20T01:51:17;9.27;;;8.48;;
74616;SDS011;63123;50.906;4.198;2022-11-20T01:53:55;9.85;;;8.95;;
74616;SDS011;63123;50.906;4.198;2022-11-20T01:56:25;9.85;;;8.95;;
74616;SDS011;63123;50.906;4.198;2022-11-20T01:58:54;9.68;;;8.77;;
74616;SDS011;63123;50.906;4.198;2022-11-20T02:01:23;9.57;;;8.70;;
74616;SDS011;63123;50.906;4.198;2022-11-20T02:03:49;9.45;;;8.55;;
74616;SDS011;63123;50.906;4.198;2022-11-20T02:06:59;9.13;;;8.43;;
74616;SDS011;63123;50.906;4.198;2022-11-20T02:09:10;8.43;;;7.63;;
74616;SDS011;63123;50.906;4.198;2022-11-20T02:11:36;9.30;;;8.43;;
74616;SDS011;63123;50.906;4.198;2022-11-20T02:14:02;9.93;;;9.02;;
74616;SDS011;63123;50.906;4.198;2022-11-20T02:16:30;9.10;;;8.30;;
74616;SDS011;63123;50.906;4.198;2022-11-20T02:18:59;9.95;;;9.10;;
74616;SDS011;63123;50.906;4.198;2022-11-20T02:24:15;10.38;;;9.50;;
74616;SDS011;63123;50.906;4.198;2022-11-20T02:26:44;10.18;;;9.27;;
74616;SDS011;63123;50.906;4.198;2022-11-20T02:29:11;9.85;;;9.05;;
74616;SDS011;63123;50.906;4.198;2022-11-20T02:31:38;9.88;;;8.98;;
74616;SDS011;63123;50.906;4.198;2022-11-20T02:34:06;9.07;;;8.20;;
74616;SDS011;63123;50.906;4.198;2022-11-20T02:36:32;9.18;;;8.38;;
74616;SDS011;63123;50.906;4.198;2022-11-20T02:39:00;9.57;;;8.77;;
74616;SDS011;63123;50.906;4.198;2022-11-20T02:41:33;10.07;;;9.15;;
74616;SDS011;63123;50.906;4.198;2022-11-20T02:44:00;9.17;;;8.33;;
74616;SDS011;63123;50.906;4.198;2022-11-20T02:46:26;10.00;;;9.10;;
74616;SDS011;63123;50.906;4.198;2022-11-20T02:48:52;9.98;;;9.07;;
74616;SDS011;63123;50.906;4.198;2022-11-20T02:51:17;9.93;;;9.02;;
74616;SDS011;63123;50.906;4.198;2022-11-20T02:53:43;9.52;;;8.75;;
74616;SDS011;63123;50.906;4.198;2022-11-20T02:56:09;9.27;;;8.48;;
74616;SDS011;63123;50.906;4.198;2022-11-20T02:58:34;9.45;;;8.55;;
74616;SDS011;63123;50.906;4.198;2022-11-20T03:01:00;9.68;;;8.80;;
74616;SDS011;63123;50.906;4.198;2022-11-20T03:03:25;9.07;;;8.30;;
74616;SDS011;63123;50.906;4.198;2022-11-20T03:05:51;10.57;;;9.57;;
74616;SDS011;63123;50.906;4.198;2022-11-20T03:08:16;9.35;;;8.52;;
74616;SDS011;63123;50.906;4.198;2022-11-20T03:10:42;10.45;;;9.57;;
74616;SDS011;63123;50.906;4.198;2022-11-20T03:13:08;9.77;;;8.98;;
74616;SDS011;63123;50.906;4.198;2022-11-20T03:15:35;10.63;;;9.63;;
74616;SDS011;63123;50.906;4.198;2022-11-20T03:18:01;9.82;;;8.90;;
74616;SDS011;63123;50.906;4.198;2022-11-20T03:20:27;9.35;;;8.55;;
74616;SDS011;63123;50.906;4.198;2022-11-20T03:22:53;10.75;;;8.65;;
74616;SDS011;63123;50.906;4.198;2022-11-20T03:25:19;9.93;;;9.02;;
74616;SDS011;63123;50.906;4.198;2022-11-20T03:27:44;9.68;;;8.88;;
74616;SDS011;63123;50.906;4.198;2022-11-20T03:30:10;9.73;;;8.82;;
74616;SDS011;63123;50.906;4.198;2022-11-20T03:32:36;9.05;;;8.25;;
74616;SDS011;63123;50.906;4.198;2022-11-20T03:35:01;9.88;;;8.90;;
74616;SDS011;63123;50.906;4.198;2022-11-20T03:37:27;10.05;;;9.15;;
74616;SDS011;63123;50.906;4.198;2022-11-20T03:39:53;9.60;;;8.70;;
74616;SDS011;63123;50.906;4.198;2022-11-20T03:42:18;10.00;;;9.10;;
74616;SDS011;63123;50.906;4.198;2022-11-20T03:45:19;9.68;;;8.77;;
74616;SDS011;63123;50.906;4.198;2022-11-20T03:47:44;9.50;;;8.70;;
74616;SDS011;63123;50.906;4.198;2022-11-20T03:50:12;9.25;;;8.45;;
74616;SDS011;63123;50.906;4.198;2022-11-20T03:52:39;9.00;;;8.13;;
74616;SDS011;63123;50.906;4.198;2022-11-20T03:55:05;9.90;;;8.93;;
74616;SDS011;63123;50.906;4.198;2022-11-20T03:57:31;8.77;;;8.07;;
74616;SDS011;63123;50.906;4.198;2022-11-20T03:59:56;9.57;;;8.68;;
74616;SDS011;63123;50.906;4.198;2022-11-20T04:02:22;9.38;;;8.48;;
74616;SDS011;63123;50.906;4.198;2022-11-20T04:04:48;8.38;;;7.55;;
74616;SDS011;63123;50.906;4.198;2022-11-20T04:07:13;9.32;;;8.45;;
74616;SDS011;63123;50.906;4.198;2022-11-20T04:09:39;8.27;;;7.57;;
74616;SDS011;63123;50.906;4.198;2022-11-20T04:12:05;9.43;;;8.57;;
74616;SDS011;63123;50.906;4.198;2022-11-20T04:14:30;10.13;;;9.15;;
74616;SDS011;63123;50.906;4.198;2022-11-20T04:16:56;9.75;;;8.90;;
74616;SDS011;63123;50.906;4.198;2022-11-20T04:19:22;10.45;;;9.55;;
74616;SDS011;63123;50.906;4.198;2022-11-20T04:21:47;8.45;;;7.65;;
74616;SDS011;63123;50.906;4.198;2022-11-20T04:24:13;9.43;;;8.52;;
74616;SDS011;63123;50.906;4.198;2022-11-20T04:26:39;8.60;;;7.80;;
74616;SDS011;63123;50.906;4.198;2022-11-20T04:29:04;9.43;;;8.52;;
74616;SDS011;63123;50.906;4.198;2022-11-20T04:31:31;10.10;;;9.20;;
74616;SDS011;63123;50.906;4.198;2022-11-20T04:34:02;9.25;;;8.45;;
74616;SDS011;63123;50.906;4.198;2022-11-20T04:36:29;9.82;;;8.90;;
74616;SDS011;63123;50.906;4.198;2022-11-20T04:38:56;9.68;;;8.82;;
74616;SDS011;63123;50.906;4.198;2022-11-20T04:41:23;9.40;;;8.55;;
74616;SDS011;63123;50.906;4.198;2022-11-20T04:43:52;9.80;;;8.95;;
74616;SDS011;63123;50.906;4.198;2022-11-20T04:46:23;8.95;;;8.15;;
74616;SDS011;63123;50.906;4.198;2022-11-20T04:48:50;9.82;;;8.93;;
74616;SDS011;63123;50.906;4.198;2022-11-20T04:51:16;8.80;;;8.00;;
74616;SDS011;63123;50.906;4.198;2022-11-20T04:53:41;9.77;;;8.88;;
74616;SDS011;63123;50.906;4.198;2022-11-20T04:56:08;9.25;;;8.45;;
74616;SDS011;63123;50.906;4.198;2022-11-20T04:58:35;9.48;;;8.57;;
74616;SDS011;63123;50.906;4.198;2022-11-20T05:01:34;9.13;;;8.32;;
74616;SDS011;63123;50.906;4.198;2022-11-20T05:03:52;9.60;;;8.80;;
74616;SDS011;63123;50.906;4.198;2022-11-20T05:06:19;9.60;;;8.70;;
74616;SDS011;63123;50.906;4.198;2022-11-20T05:08:45;9.45;;;8.57;;
74616;SDS011;63123;50.906;4.198;2022-11-20T05:11:18;10.05;;;9.13;;
74616;SDS011;63123;50.906;4.198;2022-11-20T05:13:45;9.20;;;8.40;;
74616;SDS011;63123;50.906;4.198;2022-11-20T05:16:12;10.13;;;9.18;;
74616;SDS011;63123;50.906;4.198;2022-11-20T05:18:39;9.60;;;8.80;;
74616;SDS011;63123;50.906;4.198;2022-11-20T05:21:05;9.27;;;8.45;;
74616;SDS011;63123;50.906;4.198;2022-11-20T05:23:31;9.38;;;8.48;;
74616;SDS011;63123;50.906;4.198;2022-11-20T05:25:57;9.60;;;8.70;;
74616;SDS011;63123;50.906;4.198;2022-11-20T05:28:23;8.75;;;7.95;;
74616;SDS011;63123;50.906;4.198;2022-11-20T05:30:49;10.00;;;9.00;;
74616;SDS011;63123;50.906;4.198;2022-11-20T05:33:16;8.88;;;8.07;;
74616;SDS011;63123;50.906;4.198;2022-11-20T05:35:41;9.38;;;8.55;;
74616;SDS011;63123;50.906;4.198;2022-11-20T05:38:07;9.35;;;8.55;;
74616;SDS011;63123;50.906;4.198;2022-11-20T05:40:33;9.25;;;8.45;;
74616;SDS011;63123;50.906;4.198;2022-11-20T05:42:59;10.55;;;9.52;;
74616;SDS011;63123;50.906;4.198;2022-11-20T05:45:24;8.60;;;7.85;;
74616;SDS011;63123;50.906;4.198;2022-11-20T05:47:50;9.57;;;8.77;;
74616;SDS011;63123;50.906;4.198;2022-11-20T05:50:16;8.82;;;8.07;;
74616;SDS011;63123;50.906;4.198;2022-11-20T05:52:42;9.60;;;8.70;;
74616;SDS011;63123;50.906;4.198;2022-11-20T05:55:07;8.65;;;7.85;;
74616;SDS011;63123;50.906;4.198;2022-11-20T05:57:34;9.73;;;8.43;;
74616;SDS011;63123;50.906;4.198;2022-11-20T06:00:00;9.98;;;8.95;;
74616;SDS011;63123;50.906;4.198;2022-11-20T06:02:26;9.65;;;8.73;;
74616;SDS011;63123;50.906;4.198;2022-11-20T06:04:52;10.02;;;9.07;;
74616;SDS011;63123;50.906;4.198;2022-11-20T06:07:17;8.85;;;8.05;;
74616;SDS011;63123;50.906;4.198;2022-11-20T06:09:43;9.60;;;8.70;;
74616;SDS011;63123;50.906;4.198;2022-11-20T06:12:09;8.23;;;7.50;;
74616;SDS011;63123;50.906;4.198;2022-11-20T06:14:34;9.88;;;8.85;;
74616;SDS011;63123;50.906;4.198;2022-11-20T06:17:00;9.68;;;8.68;;
74616;SDS011;63123;50.906;4.198;2022-11-20T06:19:25;10.13;;;9.13;;
74616;SDS011;63123;50.906;4.198;2022-11-20T06:21:51;9.20;;;8.30;;
74616;SDS011;63123;50.906;4.198;2022-11-20T06:24:17;10.00;;;9.00;;
74616;SDS011;63123;50.906;4.198;2022-11-20T06:26:43;10.85;;;9.75;;
74616;SDS011;63123;50.906;4.198;2022-11-20T06:29:08;10.98;;;9.88;;
74616;SDS011;63123;50.906;4.198;2022-11-20T06:31:34;9.95;;;8.95;;
74616;SDS011;63123;50.906;4.198;2022-11-20T06:34:03;8.93;;;7.85;;
74616;SDS011;63123;50.906;4.198;2022-11-20T06:36:29;9.45;;;8.55;;
74616;SDS011;63123;50.906;4.198;2022-11-20T06:38:54;9.85;;;8.85;;
74616;SDS011;63123;50.906;4.198;2022-11-20T06:41:20;9.68;;;8.68;;
74616;SDS011;63123;50.906;4.198;2022-11-20T06:43:46;9.90;;;9.00;;
74616;SDS011;63123;50.906;4.198;2022-11-20T06:46:13;9.38;;;8.45;;
74616;SDS011;63123;50.906;4.198;2022-11-20T06:48:42;9.63;;;8.73;;
74616;SDS011;63123;50.906;4.198;2022-11-20T06:51:08;10.10;;;9.10;;
74616;SDS011;63123;50.906;4.198;2022-11-20T06:53:34;10.43;;;9.18;;
74616;SDS011;63123;50.906;4.198;2022-11-20T06:56:00;10.60;;;9.00;;
74616;SDS011;63123;50.906;4.198;2022-11-20T06:58:27;9.80;;;8.80;;
74616;SDS011;63123;50.906;4.198;2022-11-20T07:00:57;9.45;;;8.25;;
74616;SDS011;63123;50.906;4.198;2022-11-20T07:03:30;10.70;;;9.60;;
74616;SDS011;63123;50.906;4.198;2022-11-20T07:05:56;10.05;;;9.05;;
74616;SDS011;63123;50.906;4.198;2022-11-20T07:08:23;10.23;;;9.23;;
74616;SDS011;63123;50.906;4.198;2022-11-20T07:10:49;10.13;;;8.85;;
74616;SDS011;63123;50.906;4.198;2022-11-20T07:13:14;10.00;;;9.05;;
74616;SDS011;63123;50.906;4.198;2022-11-20T07:15:40;10.13;;;9.13;;
74616;SDS011;63123;50.906;4.198;2022-11-20T07:18:06;9.35;;;8.38;;
74616;SDS011;63123;50.906;4.198;2022-11-20T07:20:31;9.45;;;8.55;;
74616;SDS011;63123;50.906;4.198;2022-11-20T07:22:57;9.02;;;8.13;;
74616;SDS011;63123;50.906;4.198;2022-11-20T07:25:23;9.63;;;8.68;;
74616;SDS011;63123;50.906;4.198;2022-11-20T07:27:50;8.82;;;7.93;;
74616;SDS011;63123;50.906;4.198;2022-11-20T07:30:16;10.05;;;9.13;;
74616;SDS011;63123;50.906;4.198;2022-11-20T07:32:42;9.90;;;8.90;;
74616;SDS011;63123;50.906;4.198;2022-11-20T07:35:10;10.88;;;9.05;;
74616;SDS011;63123;50.906;4.198;2022-11-20T07:37:36;9.70;;;8.70;;
74616;SDS011;63123;50.906;4.198;2022-11-20T07:40:02;10.48;;;9.45;;
74616;SDS011;63123;50.906;4.198;2022-11-20T07:42:28;9.02;;;8.13;;
74616;SDS011;63123;50.906;4.198;2022-11-20T07:44:54;9.32;;;8.48;;
74616;SDS011;63123;50.906;4.198;2022-11-20T07:47:19;10.13;;;9.02;;
74616;SDS011;63123;50.906;4.198;2022-11-20T07:49:45;10.10;;;9.10;;
74616;SDS011;63123;50.906;4.198;2022-11-20T07:52:11;9.65;;;8.75;;
74616;SDS011;63123;50.906;4.198;2022-11-20T07:54:36;9.48;;;8.57;;
74616;SDS011;63123;50.906;4.198;2022-11-20T07:57:02;10.25;;;9.18;;
74616;SDS011;63123;50.906;4.198;2022-11-20T07:59:28;10.05;;;8.55;;
74616;SDS011;63123;50.906;4.198;2022-11-20T08:01:53;10.23;;;8.82;;
74616;SDS011;63123;50.906;4.198;2022-11-20T08:04:20;10.18;;;9.18;;
74616;SDS011;63123;50.906;4.198;2022-11-20T08:06:45;9.95;;;9.00;;
74616;SDS011;63123;50.906;4.198;2022-11-20T08:09:11;9.15;;;8.25;;
74616;SDS011;63123;50.906;4.198;2022-11-20T08:11:36;10.00;;;9.00;;
74616;SDS011;63123;50.906;4.198;2022-11-20T08:14:20;9.03;;;8.13;;
74616;SDS011;63123;50.906;4.198;2022-11-20T08:16:47;10.07;;;8.45;;
74616;SDS011;63123;50.906;4.198;2022-11-20T08:19:14;8.35;;;7.38;;
74616;SDS011;63123;50.906;4.198;2022-11-20T08:21:41;9.63;;;8.70;;
74616;SDS011;63123;50.906;4.198;2022-11-20T08:24:07;10.07;;;7.88;;
74616;SDS011;63123;50.906;4.198;2022-11-20T08:26:33;10.15;;;9.15;;
74616;SDS011;63123;50.906;4.198;2022-11-20T08:29:00;9.93;;;8.93;;
74616;SDS011;63123;50.906;4.198;2022-11-20T08:31:26;9.32;;;8.43;;
74616;SDS011;63123;50.906;4.198;2022-11-20T08:33:52;10.05;;;9.05;;
74616;SDS011;63123;50.906;4.198;2022-11-20T08:36:18;9.07;;;8.13;;
74616;SDS011;63123;50.906;4.198;2022-11-20T08:38:52;10.20;;;9.20;;
74616;SDS011;63123;50.906;4.198;2022-11-20T08:41:20;9.40;;;8.43;;
74616;SDS011;63123;50.906;4.198;2022-11-20T08:43:49;8.95;;;7.90;;
74616;SDS011;63123;50.906;4.198;2022-11-20T08:46:15;10.23;;;9.23;;
74616;SDS011;63123;50.906;4.198;2022-11-20T08:48:41;10.20;;;9.18;;
74616;SDS011;63123;50.906;4.198;2022-11-20T08:51:07;9.88;;;8.88;;
74616;SDS011;63123;50.906;4.198;2022-11-20T08:53:33;10.82;;;9.77;;
74616;SDS011;63123;50.906;4.198;2022-11-20T08:55:58;10.00;;;9.00;;
74616;SDS011;63123;50.906;4.198;2022-11-20T08:58:24;11.25;;;9.25;;
74616;SDS011;63123;50.906;4.198;2022-11-20T09:00:50;11.05;;;9.95;;
74616;SDS011;63123;50.906;4.198;2022-11-20T09:03:16;11.07;;;9.98;;
74616;SDS011;63123;50.906;4.198;2022-11-20T09:05:42;10.60;;;9.32;;
74616;SDS011;63123;50.906;4.198;2022-11-20T09:08:07;10.75;;;9.73;;
74616;SDS011;63123;50.906;4.198;2022-11-20T09:10:33;9.00;;;8.20;;
74616;SDS011;63123;50.906;4.198;2022-11-20T09:12:59;10.82;;;9.75;;
74616;SDS011;63123;50.906;4.198;2022-11-20T09:15:24;9.68;;;8.77;;
74616;SDS011;63123;50.906;4.198;2022-11-20T09:17:54;10.90;;;9.80;;
74616;SDS011;63123;50.906;4.198;2022-11-20T09:20:20;10.00;;;9.00;;
74616;SDS011;63123;50.906;4.198;2022-11-20T09:22:46;9.98;;;8.98;;
74616;SDS011;63123;50.906;4.198;2022-11-20T09:25:12;10.45;;;9.13;;
74616;SDS011;63123;50.906;4.198;2022-11-20T09:27:37;9.77;;;8.77;;
74616;SDS011;63123;50.906;4.198;2022-11-20T09:30:04;9.95;;;8.95;;
74616;SDS011;63123;50.906;4.198;2022-11-20T09:32:30;10.45;;;9.40;;
74616;SDS011;63123;50.906;4.198;2022-11-20T09:34:55;9.98;;;8.98;;
74616;SDS011;63123;50.906;4.198;2022-11-20T09:37:21;8.55;;;7.63;;
74616;SDS011;63123;50.906;4.198;2022-11-20T09:39:46;9.63;;;8.63;;
74616;SDS011;63123;50.906;4.198;2022-11-20T09:47:32;9.70;;;8.70;;
74616;SDS011;63123;50.906;4.198;2022-11-20T09:50:38;8.95;;;7.93;;
74616;SDS011;63123;50.906;4.198;2022-11-20T09:53:23;10.43;;;9.43;;
74616;SDS011;63123;50.906;4.198;2022-11-20T09:55:53;9.35;;;8.40;;
74616;SDS011;63123;50.906;4.198;2022-11-20T09:58:31;9.43;;;7.82;;
74616;SDS011;63123;50.906;4.198;2022-11-20T10:03:39;9.23;;;8.25;;
74616;SDS011;63123;50.906;4.198;2022-11-20T10:06:07;9.43;;;8.43;;
74616;SDS011;63123;50.906;4.198;2022-11-20T10:08:41;9.65;;;8.55;;
74616;SDS011;63123;50.906;4.198;2022-11-20T10:11:21;10.30;;;8.75;;
74616;SDS011;63123;50.906;4.198;2022-11-20T10:14:08;9.57;;;8.38;;
74616;SDS011;63123;50.906;4.198;2022-11-20T10:19:27;8.77;;;7.88;;
74616;SDS011;63123;50.906;4.198;2022-11-20T10:22:27;8.23;;;7.38;;
74616;SDS011;63123;50.906;4.198;2022-11-20T10:27:34;9.13;;;7.97;;
74616;SDS011;63123;50.906;4.198;2022-11-20T10:30:15;7.93;;;7.18;;
74616;SDS011;63123;50.906;4.198;2022-11-20T10:32:46;7.95;;;7.25;;
74616;SDS011;63123;50.906;4.198;2022-11-20T10:38:00;7.45;;;6.70;;
74616;SDS011;63123;50.906;4.198;2022-11-20T10:41:05;7.80;;;6.90;;
74616;SDS011;63123;50.906;4.198;2022-11-20T10:43:54;8.45;;;7.55;;
74616;SDS011;63123;50.906;4.198;2022-11-20T10:46:29;7.43;;;6.63;;
74616;SDS011;63123;50.906;4.198;2022-11-20T10:49:02;7.43;;;6.72;;
74616;SDS011;63123;50.906;4.198;2022-11-20T10:54:49;7.13;;;6.43;;
74616;SDS011;63123;50.906;4.198;2022-11-20T10:57:38;8.18;;;6.80;;
74616;SDS011;63123;50.906;4.198;2022-11-20T11:00:30;6.53;;;5.93;;
74616;SDS011;63123;50.906;4.198;2022-11-20T11:02:56;7.03;;;6.32;;
74616;SDS011;63123;50.906;4.198;2022-11-20T11:05:41;6.85;;;6.15;;
74616;SDS011;63123;50.906;4.198;2022-11-20T11:08:33;8.25;;;6.28;;
74616;SDS011;63123;50.906;4.198;2022-11-20T11:11:07;6.57;;;5.75;;
74616;SDS011;63123;50.906;4.198;2022-11-20T11:13:43;7.05;;;6.40;;
74616;SDS011;63123;50.906;4.198;2022-11-20T11:16:17;6.70;;;6.05;;
74616;SDS011;63123;50.906;4.198;2022-11-20T11:18:49;6.22;;;5.63;;
74616;SDS011;63123;50.906;4.198;2022-11-20T11:21:21;6.38;;;5.72;;
74616;SDS011;63123;50.906;4.198;2022-11-20T11:23:48;6.15;;;5.55;;
74616;SDS011;63123;50.906;4.198;2022-11-20T11:26:26;6.43;;;5.82;;
74616;SDS011;63123;50.906;4.198;2022-11-20T11:28:59;6.22;;;5.65;;
74616;SDS011;63123;50.906;4.198;2022-11-20T11:31:28;5.97;;;5.40;;
74616;SDS011;63123;50.906;4.198;2022-11-20T11:34:05;6.20;;;5.60;;
74616;SDS011;63123;50.906;4.198;2022-11-20T11:36:41;5.38;;;4.88;;
74616;SDS011;63123;50.906;4.198;2022-11-20T11:39:14;6.00;;;5.32;;
74616;SDS011;63123;50.906;4.198;2022-11-20T11:41:42;5.20;;;4.68;;
74616;SDS011;63123;50.906;4.198;2022-11-20T11:47:21;5.40;;;4.90;;
74616;SDS011;63123;50.906;4.198;2022-11-20T11:50:02;5.28;;;4.78;;
74616;SDS011;63123;50.906;4.198;2022-11-20T11:52:27;5.20;;;4.70;;
74616;SDS011;63123;50.906;4.198;2022-11-20T11:54:59;5.68;;;5.10;;
74616;SDS011;63123;50.906;4.198;2022-11-20T12:04:59;4.55;;;3.95;;
74616;SDS011;63123;50.906;4.198;2022-11-20T12:10:23;4.68;;;4.25;;
74616;SDS011;63123;50.906;4.198;2022-11-20T12:13:10;4.97;;;4.45;;
74616;SDS011;63123;50.906;4.198;2022-11-20T12:16:03;4.85;;;4.45;;
74616;SDS011;63123;50.906;4.198;2022-11-20T12:18:29;4.45;;;4.05;;
74616;SDS011;63123;50.906;4.198;2022-11-20T12:29:00;4.22;;;3.83;;
74616;SDS011;63123;50.906;4.198;2022-11-20T12:37:13;4.80;;;3.72;;
74616;SDS011;63123;50.906;4.198;2022-11-20T12:39:49;4.28;;;3.88;;
74616;SDS011;63123;50.906;4.198;2022-11-20T12:42:40;3.97;;;3.33;;
74616;SDS011;63123;50.906;4.198;2022-11-20T12:45:31;4.00;;;3.60;;
74616;SDS011;63123;50.906;4.198;2022-11-20T12:48:28;4.63;;;4.15;;
74616;SDS011;63123;50.906;4.198;2022-11-20T12:58:32;3.80;;;3.38;;
74616;SDS011;63123;50.906;4.198;2022-11-20T13:01:35;3.78;;;3.45;;
74616;SDS011;63123;50.906;4.198;2022-11-20T13:04:16;4.13;;;3.35;;
74616;SDS011;63123;50.906;4.198;2022-11-20T13:07:03;3.83;;;3.38;;
74616;SDS011;63123;50.906;4.198;2022-11-20T13:09:35;4.35;;;3.67;;
74616;SDS011;63123;50.906;4.198;2022-11-20T13:12:09;4.20;;;3.80;;
74616;SDS011;63123;50.906;4.198;2022-11-20T13:14:40;3.90;;;3.60;;
74616;SDS011;63123;50.906;4.198;2022-11-20T13:17:40;3.45;;;3.15;;
74616;SDS011;63123;50.906;4.198;2022-11-20T13:20:14;4.97;;;3.72;;
74616;SDS011;63123;50.906;4.198;2022-11-20T13:22:45;3.40;;;3.10;;
74616;SDS011;63123;50.906;4.198;2022-11-20T13:25:25;3.88;;;3.58;;
74616;SDS011;63123;50.906;4.198;2022-11-20T13:27:54;3.38;;;3.08;;
74616;SDS011;63123;50.906;4.198;2022-11-20T13:30:25;3.83;;;3.53;;
74616;SDS011;63123;50.906;4.198;2022-11-20T13:35:32;3.67;;;3.38;;
74616;SDS011;63123;50.906;4.198;2022-11-20T13:38:04;2.90;;;2.70;;
74616;SDS011;63123;50.906;4.198;2022-11-20T13:40:38;3.00;;;2.70;;
74616;SDS011;63123;50.906;4.198;2022-11-20T13:46:06;3.38;;;3.05;;
74616;SDS011;63123;50.906;4.198;2022-11-20T13:48:34;3.53;;;3.22;;
74616;SDS011;63123;50.906;4.198;2022-11-20T13:51:28;3.38;;;3.08;;
74616;SDS011;63123;50.906;4.198;2022-11-20T13:54:22;3.55;;;3.10;;
74616;SDS011;63123;50.906;4.198;2022-11-20T13:57:00;2.67;;;2.47;;
74616;SDS011;63123;50.906;4.198;2022-11-20T14:02:21;2.83;;;2.63;;
74616;SDS011;63123;50.906;4.198;2022-11-20T14:04:50;2.80;;;2.60;;
74616;SDS011;63123;50.906;4.198;2022-11-20T14:07:18;2.55;;;2.35;;
74616;SDS011;63123;50.906;4.198;2022-11-20T14:09:53;3.20;;;2.90;;
74616;SDS011;63123;50.906;4.198;2022-11-20T14:12:27;2.88;;;2.55;;
74616;SDS011;63123;50.906;4.198;2022-11-20T14:14:54;2.65;;;2.42;;
74616;SDS011;63123;50.906;4.198;2022-11-20T14:17:21;2.80;;;2.20;;
74616;SDS011;63123;50.906;4.198;2022-11-20T14:20:04;2.80;;;2.50;;
74616;SDS011;63123;50.906;4.198;2022-11-20T14:22:36;3.10;;;2.85;;
74616;SDS011;63123;50.906;4.198;2022-11-20T14:25:06;2.60;;;2.40;;
74616;SDS011;63123;50.906;4.198;2022-11-20T14:27:53;2.80;;;2.30;;
74616;SDS011;63123;50.906;4.198;2022-11-20T14:32:48;2.78;;;2.58;;
74616;SDS011;63123;50.906;4.198;2022-11-20T14:35:21;2.95;;;2.67;;
74616;SDS011;63123;50.906;4.198;2022-11-20T14:37:48;1.98;;;1.85;;
74616;SDS011;63123;50.906;4.198;2022-11-20T14:40:35;2.85;;;2.55;;
74616;SDS011;63123;50.906;4.198;2022-11-20T14:43:00;2.60;;;2.17;;
74616;SDS011;63123;50.906;4.198;2022-11-20T14:45:27;3.03;;;2.05;;
74616;SDS011;63123;50.906;4.198;2022-11-20T14:47:54;2.53;;;2.33;;
74616;SDS011;63123;50.906;4.198;2022-11-20T14:50:23;2.20;;;2.00;;
74616;SDS011;63123;50.906;4.198;2022-11-20T14:52:52;2.30;;;2.03;;
74616;SDS011;63123;50.906;4.198;2022-11-20T14:55:27;2.33;;;2.00;;
74616;SDS011;63123;50.906;4.198;2022-11-20T14:57:55;2.17;;;1.98;;
74616;SDS011;63123;50.906;4.198;2022-11-20T15:00:22;2.15;;;1.95;;
74616;SDS011;63123;50.906;4.198;2022-11-20T15:02:49;2.40;;;2.20;;
74616;SDS011;63123;50.906;4.198;2022-11-20T15:05:16;2.10;;;1.90;;
74616;SDS011;63123;50.906;4.198;2022-11-20T15:07:45;2.75;;;2.03;;
74616;SDS011;63123;50.906;4.198;2022-11-20T15:10:18;2.20;;;2.00;;
74616;SDS011;63123;50.906;4.198;2022-11-20T15:12:46;2.20;;;2.08;;
74616;SDS011;63123;50.906;4.198;2022-11-20T15:15:15;2.08;;;1.85;;
74616;SDS011;63123;50.906;4.198;2022-11-20T15:17:56;2.28;;;2.08;;
74616;SDS011;63123;50.906;4.198;2022-11-20T15:20:24;2.38;;;2.05;;
74616;SDS011;63123;50.906;4.198;2022-11-20T15:22:53;2.38;;;1.98;;
74616;SDS011;63123;50.906;4.198;2022-11-20T15:25:18;2.30;;;2.10;;
74616;SDS011;63123;50.906;4.198;2022-11-20T15:27:44;2.35;;;2.15;;
74616;SDS011;63123;50.906;4.198;2022-11-20T15:32:41;2.00;;;1.85;;
74616;SDS011;63123;50.906;4.198;2022-11-20T15:35:07;2.08;;;1.88;;
74616;SDS011;63123;50.906;4.198;2022-11-20T15:37:34;2.00;;;1.80;;
74616;SDS011;63123;50.906;4.198;2022-11-20T15:40:00;2.25;;;2.05;;
74616;SDS011;63123;50.906;4.198;2022-11-20T15:42:26;2.22;;;1.92;;
74616;SDS011;63123;50.906;4.198;2022-11-20T15:44:51;2.63;;;2.00;;
74616;SDS011;63123;50.906;4.198;2022-11-20T15:47:17;2.33;;;2.13;;
74616;SDS011;63123;50.906;4.198;2022-11-20T15:49:45;1.90;;;1.80;;
74616;SDS011;63123;50.906;4.198;2022-11-20T15:52:10;1.85;;;1.75;;
74616;SDS011;63123;50.906;4.198;2022-11-20T15:54:36;2.33;;;2.13;;
74616;SDS011;63123;50.906;4.198;2022-11-20T15:57:02;1.60;;;1.50;;
74616;SDS011;63123;50.906;4.198;2022-11-20T15:59:27;2.45;;;2.00;;
74616;SDS011;63123;50.906;4.198;2022-11-20T16:01:53;2.05;;;1.85;;
74616;SDS011;63123;50.906;4.198;2022-11-20T16:04:19;1.83;;;1.73;;
74616;SDS011;63123;50.906;4.198;2022-11-20T16:06:44;1.73;;;1.52;;
74616;SDS011;63123;50.906;4.198;2022-11-20T16:09:10;2.13;;;1.92;;
74616;SDS011;63123;50.906;4.198;2022-11-20T16:11:36;2.45;;;1.63;;